sensor_id;sensor_type;location;lat;lon;timestamp;temperature;humidity
76099;DHT22;64828;49.956;8.636;2023-08-06T00:00:10;15.20;89.90
76099;DHT22;64828;49.956;8.636;2023-08-06T00:00:26;15.20;90.00
76099;DHT22;64828;49.956;8.636;2023-08-06T00:00:41;15.20;90.00
76099;DHT22;64828;49.956;8.636;2023-08-06T00:00:57;15.20;90.00
76099;DHT22;64828;49.956;8.636;2023-08-06T00:01:12;15.10;90.00
76099;DHT22;64828;49.956;8.636;2023-08-06T00:01:28;15.20;90.00
76099;DHT22;64828;49.956;8.636;2023-08-06T00:01:43;15.20;90.10
76099;DHT22;64828;49.956;8.636;2023-08-06T00:01:59;15.20;90.10
76099;DHT22;64828;49.956;8.636;2023-08-06T00:02:14;15.20;90.10
76099;DHT22;64828;49.956;8.636;2023-08-06T00:02:30;15.20;90.00
76099;DHT22;64828;49.956;8.636;2023-08-06T00:02:45;15.20;90.00
76099;DHT22;64828;49.956;8.636;2023-08-06T00:03:01;15.10;90.00
76099;DHT22;64828;49.956;8.636;2023-08-06T00:03:16;15.20;90.00
76099;DHT22;64828;49.956;8.636;2023-08-06T00:03:31;15.20;89.90
76099;DHT22;64828;49.956;8.636;2023-08-06T00:03:47;15.20;89.90
76099;DHT22;64828;49.956;8.636;2023-08-06T00:04:02;15.20;89.90
76099;DHT22;64828;49.956;8.636;2023-08-06T00:04:18;15.20;90.00
76099;DHT22;64828;49.956;8.636;2023-08-06T00:04:34;15.20;89.90
76099;DHT22;64828;49.956;8.636;2023-08-06T00:04:50;15.20;89.90
76099;DHT22;64828;49.956;8.636;2023-08-06T00:05:05;15.20;90.00
76099;DHT22;64828;49.956;8.636;2023-08-06T00:05:21;15.20;90.00
76099;DHT22;64828;49.956;8.636;2023-08-06T00:05:37;15.20;90.00
76099;DHT22;64828;49.956;8.636;2023-08-06T00:05:52;15.20;89.90
76099;DHT22;64828;49.956;8.636;2023-08-06T00:06:07;15.20;89.90
76099;DHT22;64828;49.956;8.636;2023-08-06T00:06:23;15.20;89.90
76099;DHT22;64828;49.956;8.636;2023-08-06T00:06:39;15.20;89.90
76099;DHT22;64828;49.956;8.636;2023-08-06T00:06:54;15.20;89.90
76099;DHT22;64828;49.956;8.636;2023-08-06T00:07:10;15.20;90.00
76099;DHT22;64828;49.956;8.636;2023-08-06T00:07:25;15.20;90.00
76099;DHT22;64828;49.956;8.636;2023-08-06T00:07:41;15.20;90.00
76099;DHT22;64828;49.956;8.636;2023-08-06T00:07:56;15.20;89.90
76099;DHT22;64828;49.956;8.636;2023-08-06T00:08:12;15.20;89.90
76099;DHT22;64828;49.956;8.636;2023-08-06T00:08:27;15.20;89.90
76099;DHT22;64828;49.956;8.636;2023-08-06T00:08:43;15.20;89.90
76099;DHT22;64828;49.956;8.636;2023-08-06T00:08:58;15.10;89.90
76099;DHT22;64828;49.956;8.636;2023-08-06T00:09:14;15.10;89.90
76099;DHT22;64828;49.956;8.636;2023-08-06T00:09:29;15.10;89.90
76099;DHT22;64828;49.956;8.636;2023-08-06T00:09:44;15.10;89.90
76099;DHT22;64828;49.956;8.636;2023-08-06T00:10:00;15.10;89.90
76099;DHT22;64828;49.956;8.636;2023-08-06T00:10:16;15.10;90.00
76099;DHT22;64828;49.956;8.636;2023-08-06T00:10:32;15.10;90.00
76099;DHT22;64828;49.956;8.636;2023-08-06T00:10:48;15.10;90.00
76099;DHT22;64828;49.956;8.636;2023-08-06T00:11:04;15.10;90.10
76099;DHT22;64828;49.956;8.636;2023-08-06T00:11:19;15.10;90.10
76099;DHT22;64828;49.956;8.636;2023-08-06T00:11:34;15.10;90.10
76099;DHT22;64828;49.956;8.636;2023-08-06T00:11:50;15.10;90.20
76099;DHT22;64828;49.956;8.636;2023-08-06T00:12:05;15.10;90.20
76099;DHT22;64828;49.956;8.636;2023-08-06T00:12:21;15.10;90.20
76099;DHT22;64828;49.956;8.636;2023-08-06T00:12:36;15.10;90.20
76099;DHT22;64828;49.956;8.636;2023-08-06T00:12:52;15.00;90.20
76099;DHT22;64828;49.956;8.636;2023-08-06T00:13:07;15.00;90.20
76099;DHT22;64828;49.956;8.636;2023-08-06T00:13:23;15.00;90.30
76099;DHT22;64828;49.956;8.636;2023-08-06T00:13:38;15.10;90.30
76099;DHT22;64828;49.956;8.636;2023-08-06T00:13:54;15.00;90.30
76099;DHT22;64828;49.956;8.636;2023-08-06T00:14:10;15.00;90.30
76099;DHT22;64828;49.956;8.636;2023-08-06T00:14:25;15.00;90.30
76099;DHT22;64828;49.956;8.636;2023-08-06T00:14:40;15.00;90.40
76099;DHT22;64828;49.956;8.636;2023-08-06T00:14:56;15.00;90.40
76099;DHT22;64828;49.956;8.636;2023-08-06T00:15:12;15.00;90.40
76099;DHT22;64828;49.956;8.636;2023-08-06T00:15:27;15.00;90.40
76099;DHT22;64828;49.956;8.636;2023-08-06T00:15:42;15.00;90.40
76099;DHT22;64828;49.956;8.636;2023-08-06T00:16:11;15.00;90.40
76099;DHT22;64828;49.956;8.636;2023-08-06T00:16:27;15.00;90.40
76099;DHT22;64828;49.956;8.636;2023-08-06T00:16:44;15.00;90.40
76099;DHT22;64828;49.956;8.636;2023-08-06T00:16:59;15.00;90.40
76099;DHT22;64828;49.956;8.636;2023-08-06T00:17:14;15.00;90.40
76099;DHT22;64828;49.956;8.636;2023-08-06T00:17:30;15.00;90.50
76099;DHT22;64828;49.956;8.636;2023-08-06T00:17:45;15.00;90.40
76099;DHT22;64828;49.956;8.636;2023-08-06T00:18:01;15.00;90.40
76099;DHT22;64828;49.956;8.636;2023-08-06T00:18:16;15.00;90.40
76099;DHT22;64828;49.956;8.636;2023-08-06T00:18:32;15.00;90.40
76099;DHT22;64828;49.956;8.636;2023-08-06T00:18:47;15.00;90.40
76099;DHT22;64828;49.956;8.636;2023-08-06T00:19:03;15.00;90.50
76099;DHT22;64828;49.956;8.636;2023-08-06T00:19:18;15.00;90.50
76099;DHT22;64828;49.956;8.636;2023-08-06T00:19:34;15.00;90.50
76099;DHT22;64828;49.956;8.636;2023-08-06T00:19:49;15.00;90.50
76099;DHT22;64828;49.956;8.636;2023-08-06T00:20:05;15.00;90.50
76099;DHT22;64828;49.956;8.636;2023-08-06T00:20:21;15.00;90.50
76099;DHT22;64828;49.956;8.636;2023-08-06T00:20:39;15.00;90.60
76099;DHT22;64828;49.956;8.636;2023-08-06T00:20:55;15.00;90.60
76099;DHT22;64828;49.956;8.636;2023-08-06T00:21:11;15.00;90.60
76099;DHT22;64828;49.956;8.636;2023-08-06T00:21:27;15.00;90.60
76099;DHT22;64828;49.956;8.636;2023-08-06T00:21:43;15.00;90.60
76099;DHT22;64828;49.956;8.636;2023-08-06T00:21:58;15.00;90.70
76099;DHT22;64828;49.956;8.636;2023-08-06T00:22:14;15.00;90.60
76099;DHT22;64828;49.956;8.636;2023-08-06T00:22:30;15.00;90.70
76099;DHT22;64828;49.956;8.636;2023-08-06T00:22:46;15.00;90.70
76099;DHT22;64828;49.956;8.636;2023-08-06T00:23:01;15.00;90.70
76099;DHT22;64828;49.956;8.636;2023-08-06T00:23:17;15.00;90.70
76099;DHT22;64828;49.956;8.636;2023-08-06T00:23:33;15.00;90.60
76099;DHT22;64828;49.956;8.636;2023-08-06T00:23:49;15.00;90.60
76099;DHT22;64828;49.956;8.636;2023-08-06T00:24:04;15.00;90.60
76099;DHT22;64828;49.956;8.636;2023-08-06T00:24:20;15.10;90.60
76099;DHT22;64828;49.956;8.636;2023-08-06T00:24:35;15.10;90.60
76099;DHT22;64828;49.956;8.636;2023-08-06T00:24:51;15.00;90.60
76099;DHT22;64828;49.956;8.636;2023-08-06T00:25:08;15.00;90.60
76099;DHT22;64828;49.956;8.636;2023-08-06T00:25:23;15.10;90.60
76099;DHT22;64828;49.956;8.636;2023-08-06T00:25:39;15.10;90.60
76099;DHT22;64828;49.956;8.636;2023-08-06T00:25:54;15.00;90.60
76099;DHT22;64828;49.956;8.636;2023-08-06T00:26:10;15.10;90.60
76099;DHT22;64828;49.956;8.636;2023-08-06T00:26:25;15.10;90.60
76099;DHT22;64828;49.956;8.636;2023-08-06T00:26:41;15.10;90.60
76099;DHT22;64828;49.956;8.636;2023-08-06T00:26:56;15.00;90.60
76099;DHT22;64828;49.956;8.636;2023-08-06T00:27:12;15.10;90.60
76099;DHT22;64828;49.956;8.636;2023-08-06T00:27:27;15.10;90.60
76099;DHT22;64828;49.956;8.636;2023-08-06T00:27:43;15.10;90.60
76099;DHT22;64828;49.956;8.636;2023-08-06T00:27:58;15.10;90.70
76099;DHT22;64828;49.956;8.636;2023-08-06T00:28:13;15.10;90.60
76099;DHT22;64828;49.956;8.636;2023-08-06T00:28:29;15.10;90.60
76099;DHT22;64828;49.956;8.636;2023-08-06T00:28:44;15.10;90.60
76099;DHT22;64828;49.956;8.636;2023-08-06T00:29:00;15.10;90.60
76099;DHT22;64828;49.956;8.636;2023-08-06T00:29:15;15.10;90.60
76099;DHT22;64828;49.956;8.636;2023-08-06T00:29:31;15.10;90.50
76099;DHT22;64828;49.956;8.636;2023-08-06T00:29:46;15.10;90.50
76099;DHT22;64828;49.956;8.636;2023-08-06T00:30:02;15.20;90.50
76099;DHT22;64828;49.956;8.636;2023-08-06T00:30:17;15.20;90.40
76099;DHT22;64828;49.956;8.636;2023-08-06T00:30:33;15.20;90.40
76099;DHT22;64828;49.956;8.636;2023-08-06T00:30:57;15.20;90.40
76099;DHT22;64828;49.956;8.636;2023-08-06T00:31:12;15.20;90.40
76099;DHT22;64828;49.956;8.636;2023-08-06T00:31:28;15.20;90.40
76099;DHT22;64828;49.956;8.636;2023-08-06T00:31:44;15.20;90.40
76099;DHT22;64828;49.956;8.636;2023-08-06T00:31:59;15.20;90.40
76099;DHT22;64828;49.956;8.636;2023-08-06T00:32:14;15.20;90.40
76099;DHT22;64828;49.956;8.636;2023-08-06T00:32:30;15.20;90.40
76099;DHT22;64828;49.956;8.636;2023-08-06T00:32:45;15.20;90.40
76099;DHT22;64828;49.956;8.636;2023-08-06T00:33:01;15.20;90.40
76099;DHT22;64828;49.956;8.636;2023-08-06T00:33:16;15.20;90.40
76099;DHT22;64828;49.956;8.636;2023-08-06T00:33:32;15.20;90.50
76099;DHT22;64828;49.956;8.636;2023-08-06T00:33:47;15.20;90.50
76099;DHT22;64828;49.956;8.636;2023-08-06T00:34:03;15.20;90.50
76099;DHT22;64828;49.956;8.636;2023-08-06T00:34:18;15.20;90.50
76099;DHT22;64828;49.956;8.636;2023-08-06T00:34:34;15.20;90.50
76099;DHT22;64828;49.956;8.636;2023-08-06T00:34:49;15.20;90.60
76099;DHT22;64828;49.956;8.636;2023-08-06T00:35:05;15.20;90.50
76099;DHT22;64828;49.956;8.636;2023-08-06T00:35:20;15.20;90.60
76099;DHT22;64828;49.956;8.636;2023-08-06T00:35:36;15.20;90.50
76099;DHT22;64828;49.956;8.636;2023-08-06T00:35:51;15.20;90.50
76099;DHT22;64828;49.956;8.636;2023-08-06T00:36:07;15.20;90.50
76099;DHT22;64828;49.956;8.636;2023-08-06T00:36:22;15.20;90.40
76099;DHT22;64828;49.956;8.636;2023-08-06T00:36:38;15.20;90.40
76099;DHT22;64828;49.956;8.636;2023-08-06T00:36:54;15.20;90.40
76099;DHT22;64828;49.956;8.636;2023-08-06T00:37:09;15.30;90.30
76099;DHT22;64828;49.956;8.636;2023-08-06T00:37:25;15.20;90.20
76099;DHT22;64828;49.956;8.636;2023-08-06T00:37:40;15.30;90.10
76099;DHT22;64828;49.956;8.636;2023-08-06T00:37:56;15.30;90.00
76099;DHT22;64828;49.956;8.636;2023-08-06T00:38:11;15.30;90.00
76099;DHT22;64828;49.956;8.636;2023-08-06T00:38:26;15.30;89.90
76099;DHT22;64828;49.956;8.636;2023-08-06T00:38:42;15.30;89.90
76099;DHT22;64828;49.956;8.636;2023-08-06T00:38:57;15.30;89.90
76099;DHT22;64828;49.956;8.636;2023-08-06T00:39:13;15.30;89.90
76099;DHT22;64828;49.956;8.636;2023-08-06T00:39:28;15.30;89.90
76099;DHT22;64828;49.956;8.636;2023-08-06T00:39:44;15.30;89.90
76099;DHT22;64828;49.956;8.636;2023-08-06T00:40:00;15.30;89.80
76099;DHT22;64828;49.956;8.636;2023-08-06T00:40:15;15.30;89.70
76099;DHT22;64828;49.956;8.636;2023-08-06T00:40:31;15.30;89.70
76099;DHT22;64828;49.956;8.636;2023-08-06T00:40:46;15.40;89.70
76099;DHT22;64828;49.956;8.636;2023-08-06T00:41:02;15.40;89.70
76099;DHT22;64828;49.956;8.636;2023-08-06T00:41:18;15.30;89.70
76099;DHT22;64828;49.956;8.636;2023-08-06T00:41:33;15.30;89.70
76099;DHT22;64828;49.956;8.636;2023-08-06T00:41:49;15.30;89.70
76099;DHT22;64828;49.956;8.636;2023-08-06T00:42:04;15.30;89.70
76099;DHT22;64828;49.956;8.636;2023-08-06T00:42:20;15.30;89.70
76099;DHT22;64828;49.956;8.636;2023-08-06T00:42:36;15.30;89.70
76099;DHT22;64828;49.956;8.636;2023-08-06T00:42:52;15.40;89.70
76099;DHT22;64828;49.956;8.636;2023-08-06T00:43:07;15.30;89.70
76099;DHT22;64828;49.956;8.636;2023-08-06T00:43:23;15.40;89.70
76099;DHT22;64828;49.956;8.636;2023-08-06T00:43:38;15.30;89.70
76099;DHT22;64828;49.956;8.636;2023-08-06T00:43:54;15.40;89.70
76099;DHT22;64828;49.956;8.636;2023-08-06T00:44:09;15.40;89.70
76099;DHT22;64828;49.956;8.636;2023-08-06T00:44:25;15.40;89.70
76099;DHT22;64828;49.956;8.636;2023-08-06T00:44:40;15.40;89.60
76099;DHT22;64828;49.956;8.636;2023-08-06T00:44:56;15.40;89.60
76099;DHT22;64828;49.956;8.636;2023-08-06T00:45:11;15.40;89.60
76099;DHT22;64828;49.956;8.636;2023-08-06T00:45:27;15.40;89.60
76099;DHT22;64828;49.956;8.636;2023-08-06T00:45:45;15.40;89.60
76099;DHT22;64828;49.956;8.636;2023-08-06T00:46:00;15.40;89.60
76099;DHT22;64828;49.956;8.636;2023-08-06T00:46:16;15.40;89.50
76099;DHT22;64828;49.956;8.636;2023-08-06T00:46:32;15.40;89.50
76099;DHT22;64828;49.956;8.636;2023-08-06T00:46:48;15.40;89.50
76099;DHT22;64828;49.956;8.636;2023-08-06T00:47:06;15.40;89.50
76099;DHT22;64828;49.956;8.636;2023-08-06T00:47:21;15.40;89.50
76099;DHT22;64828;49.956;8.636;2023-08-06T00:47:37;15.40;89.40
76099;DHT22;64828;49.956;8.636;2023-08-06T00:47:54;15.40;89.50
76099;DHT22;64828;49.956;8.636;2023-08-06T00:48:10;15.40;89.50
76099;DHT22;64828;49.956;8.636;2023-08-06T00:48:26;15.40;89.40
76099;DHT22;64828;49.956;8.636;2023-08-06T00:48:42;15.40;89.40
76099;DHT22;64828;49.956;8.636;2023-08-06T00:48:57;15.40;89.40
76099;DHT22;64828;49.956;8.636;2023-08-06T00:49:13;15.40;89.40
76099;DHT22;64828;49.956;8.636;2023-08-06T00:49:29;15.40;89.40
76099;DHT22;64828;49.956;8.636;2023-08-06T00:49:44;15.40;89.40
76099;DHT22;64828;49.956;8.636;2023-08-06T00:50:00;15.40;89.40
76099;DHT22;64828;49.956;8.636;2023-08-06T00:50:15;15.40;89.40
76099;DHT22;64828;49.956;8.636;2023-08-06T00:50:31;15.40;89.40
76099;DHT22;64828;49.956;8.636;2023-08-06T00:50:47;15.40;89.50
76099;DHT22;64828;49.956;8.636;2023-08-06T00:51:03;15.40;89.60
76099;DHT22;64828;49.956;8.636;2023-08-06T00:51:19;15.40;89.60
76099;DHT22;64828;49.956;8.636;2023-08-06T00:51:35;15.40;89.60
76099;DHT22;64828;49.956;8.636;2023-08-06T00:51:51;15.40;89.50
76099;DHT22;64828;49.956;8.636;2023-08-06T00:52:08;15.40;89.40
76099;DHT22;64828;49.956;8.636;2023-08-06T00:52:23;15.40;89.40
76099;DHT22;64828;49.956;8.636;2023-08-06T00:52:39;15.40;89.40
76099;DHT22;64828;49.956;8.636;2023-08-06T00:52:55;15.40;89.50
76099;DHT22;64828;49.956;8.636;2023-08-06T00:53:11;15.40;89.50
76099;DHT22;64828;49.956;8.636;2023-08-06T00:53:27;15.40;89.50
76099;DHT22;64828;49.956;8.636;2023-08-06T00:53:42;15.40;89.50
76099;DHT22;64828;49.956;8.636;2023-08-06T00:53:58;15.40;89.50
76099;DHT22;64828;49.956;8.636;2023-08-06T00:54:14;15.40;89.50
76099;DHT22;64828;49.956;8.636;2023-08-06T00:54:30;15.40;89.50
76099;DHT22;64828;49.956;8.636;2023-08-06T00:54:46;15.40;89.60
76099;DHT22;64828;49.956;8.636;2023-08-06T00:55:02;15.40;89.60
76099;DHT22;64828;49.956;8.636;2023-08-06T00:55:18;15.40;89.60
76099;DHT22;64828;49.956;8.636;2023-08-06T00:55:33;15.40;89.70
76099;DHT22;64828;49.956;8.636;2023-08-06T00:55:50;15.40;89.60
76099;DHT22;64828;49.956;8.636;2023-08-06T00:56:07;15.40;89.60
76099;DHT22;64828;49.956;8.636;2023-08-06T00:56:24;15.40;89.60
76099;DHT22;64828;49.956;8.636;2023-08-06T00:56:41;15.40;89.60
76099;DHT22;64828;49.956;8.636;2023-08-06T00:56:57;15.40;89.50
76099;DHT22;64828;49.956;8.636;2023-08-06T00:57:14;15.40;89.50
76099;DHT22;64828;49.956;8.636;2023-08-06T00:57:29;15.40;89.40
76099;DHT22;64828;49.956;8.636;2023-08-06T00:57:45;15.40;89.50
76099;DHT22;64828;49.956;8.636;2023-08-06T00:58:01;15.40;89.40
76099;DHT22;64828;49.956;8.636;2023-08-06T00:58:17;15.40;89.30
76099;DHT22;64828;49.956;8.636;2023-08-06T00:58:32;15.40;89.30
76099;DHT22;64828;49.956;8.636;2023-08-06T00:58:48;15.40;89.30
76099;DHT22;64828;49.956;8.636;2023-08-06T00:59:05;15.40;89.30
76099;DHT22;64828;49.956;8.636;2023-08-06T00:59:21;15.40;89.40
76099;DHT22;64828;49.956;8.636;2023-08-06T00:59:37;15.40;89.40
76099;DHT22;64828;49.956;8.636;2023-08-06T00:59:53;15.40;89.30
76099;DHT22;64828;49.956;8.636;2023-08-06T01:00:10;15.40;89.40
76099;DHT22;64828;49.956;8.636;2023-08-06T01:00:26;15.40;89.40
76099;DHT22;64828;49.956;8.636;2023-08-06T01:00:41;15.40;89.40
76099;DHT22;64828;49.956;8.636;2023-08-06T01:00:57;15.40;89.40
76099;DHT22;64828;49.956;8.636;2023-08-06T01:01:12;15.40;89.30
76099;DHT22;64828;49.956;8.636;2023-08-06T01:01:28;15.40;89.30
76099;DHT22;64828;49.956;8.636;2023-08-06T01:01:44;15.40;89.30
76099;DHT22;64828;49.956;8.636;2023-08-06T01:02:00;15.40;89.40
76099;DHT22;64828;49.956;8.636;2023-08-06T01:02:15;15.30;89.40
76099;DHT22;64828;49.956;8.636;2023-08-06T01:02:31;15.30;89.30
76099;DHT22;64828;49.956;8.636;2023-08-06T01:02:48;15.40;89.30
76099;DHT22;64828;49.956;8.636;2023-08-06T01:03:03;15.30;89.30
76099;DHT22;64828;49.956;8.636;2023-08-06T01:03:19;15.30;89.30
76099;DHT22;64828;49.956;8.636;2023-08-06T01:03:34;15.30;89.30
76099;DHT22;64828;49.956;8.636;2023-08-06T01:03:50;15.30;89.30
76099;DHT22;64828;49.956;8.636;2023-08-06T01:04:06;15.40;89.30
76099;DHT22;64828;49.956;8.636;2023-08-06T01:04:23;15.40;89.30
76099;DHT22;64828;49.956;8.636;2023-08-06T01:04:38;15.30;89.40
76099;DHT22;64828;49.956;8.636;2023-08-06T01:04:54;15.40;89.40
76099;DHT22;64828;49.956;8.636;2023-08-06T01:05:09;15.30;89.50
76099;DHT22;64828;49.956;8.636;2023-08-06T01:05:25;15.30;89.50
76099;DHT22;64828;49.956;8.636;2023-08-06T01:05:40;15.30;89.50
76099;DHT22;64828;49.956;8.636;2023-08-06T01:05:56;15.30;89.50
76099;DHT22;64828;49.956;8.636;2023-08-06T01:06:11;15.30;89.50
76099;DHT22;64828;49.956;8.636;2023-08-06T01:06:42;15.30;89.40
76099;DHT22;64828;49.956;8.636;2023-08-06T01:07:09;15.30;89.40
76099;DHT22;64828;49.956;8.636;2023-08-06T01:07:51;15.30;89.40
76099;DHT22;64828;49.956;8.636;2023-08-06T01:09:15;15.30;89.50
76099;DHT22;64828;49.956;8.636;2023-08-06T01:10:29;15.30;89.50
76099;DHT22;64828;49.956;8.636;2023-08-06T01:11:36;15.30;89.50
76099;DHT22;64828;49.956;8.636;2023-08-06T01:12:00;15.30;89.60
76099;DHT22;64828;49.956;8.636;2023-08-06T01:12:34;15.30;89.50
76099;DHT22;64828;49.956;8.636;2023-08-06T01:13:41;15.30;89.50
76099;DHT22;64828;49.956;8.636;2023-08-06T01:14:08;15.30;89.50
76099;DHT22;64828;49.956;8.636;2023-08-06T01:14:36;15.30;89.40
76099;DHT22;64828;49.956;8.636;2023-08-06T01:15:04;15.30;89.40
76099;DHT22;64828;49.956;8.636;2023-08-06T01:15:26;15.30;89.40
76099;DHT22;64828;49.956;8.636;2023-08-06T01:15:55;15.30;89.30
76099;DHT22;64828;49.956;8.636;2023-08-06T01:16:19;15.30;89.40
76099;DHT22;64828;49.956;8.636;2023-08-06T01:16:35;15.30;89.40
76099;DHT22;64828;49.956;8.636;2023-08-06T01:16:53;15.30;89.40
76099;DHT22;64828;49.956;8.636;2023-08-06T01:17:10;15.30;89.30
76099;DHT22;64828;49.956;8.636;2023-08-06T01:17:26;15.30;89.30
76099;DHT22;64828;49.956;8.636;2023-08-06T01:17:42;15.30;89.30
76099;DHT22;64828;49.956;8.636;2023-08-06T01:17:59;15.30;89.30
76099;DHT22;64828;49.956;8.636;2023-08-06T01:18:15;15.30;89.40
76099;DHT22;64828;49.956;8.636;2023-08-06T01:18:31;15.30;89.30
76099;DHT22;64828;49.956;8.636;2023-08-06T01:18:48;15.30;89.30
76099;DHT22;64828;49.956;8.636;2023-08-06T01:19:04;15.30;89.30
76099;DHT22;64828;49.956;8.636;2023-08-06T01:19:21;15.30;89.30
76099;DHT22;64828;49.956;8.636;2023-08-06T01:19:36;15.30;89.40
76099;DHT22;64828;49.956;8.636;2023-08-06T01:19:52;15.30;89.50
76099;DHT22;64828;49.956;8.636;2023-08-06T01:20:08;15.30;89.50
76099;DHT22;64828;49.956;8.636;2023-08-06T01:20:31;15.30;89.50
76099;DHT22;64828;49.956;8.636;2023-08-06T01:20:46;15.30;89.40
76099;DHT22;64828;49.956;8.636;2023-08-06T01:21:02;15.30;89.40
76099;DHT22;64828;49.956;8.636;2023-08-06T01:21:18;15.40;89.40
76099;DHT22;64828;49.956;8.636;2023-08-06T01:21:34;15.30;89.50
76099;DHT22;64828;49.956;8.636;2023-08-06T01:21:49;15.40;89.50
76099;DHT22;64828;49.956;8.636;2023-08-06T01:22:05;15.30;89.60
76099;DHT22;64828;49.956;8.636;2023-08-06T01:22:20;15.30;89.60
76099;DHT22;64828;49.956;8.636;2023-08-06T01:22:36;15.30;89.60
76099;DHT22;64828;49.956;8.636;2023-08-06T01:22:51;15.40;89.60
76099;DHT22;64828;49.956;8.636;2023-08-06T01:23:07;15.40;89.60
76099;DHT22;64828;49.956;8.636;2023-08-06T01:23:23;15.40;89.60
76099;DHT22;64828;49.956;8.636;2023-08-06T01:23:40;15.30;89.50
76099;DHT22;64828;49.956;8.636;2023-08-06T01:23:56;15.30;89.40
76099;DHT22;64828;49.956;8.636;2023-08-06T01:24:11;15.30;89.30
76099;DHT22;64828;49.956;8.636;2023-08-06T01:24:27;15.30;89.30
76099;DHT22;64828;49.956;8.636;2023-08-06T01:24:48;15.30;89.40
76099;DHT22;64828;49.956;8.636;2023-08-06T01:25:05;15.30;89.50
76099;DHT22;64828;49.956;8.636;2023-08-06T01:25:21;15.30;89.60
76099;DHT22;64828;49.956;8.636;2023-08-06T01:26:40;15.30;89.40
76099;DHT22;64828;49.956;8.636;2023-08-06T01:27:11;15.30;89.40
76099;DHT22;64828;49.956;8.636;2023-08-06T01:28:05;15.30;89.60
76099;DHT22;64828;49.956;8.636;2023-08-06T01:29:23;15.30;89.50
76099;DHT22;64828;49.956;8.636;2023-08-06T01:29:51;15.40;89.60
76099;DHT22;64828;49.956;8.636;2023-08-06T01:30:18;15.30;89.70
76099;DHT22;64828;49.956;8.636;2023-08-06T01:30:40;15.40;89.70
76099;DHT22;64828;49.956;8.636;2023-08-06T01:30:58;15.30;89.70
76099;DHT22;64828;49.956;8.636;2023-08-06T01:31:21;15.30;89.70
76099;DHT22;64828;49.956;8.636;2023-08-06T01:31:38;15.40;89.70
76099;DHT22;64828;49.956;8.636;2023-08-06T01:31:55;15.40;89.80
76099;DHT22;64828;49.956;8.636;2023-08-06T01:32:14;15.40;89.80
76099;DHT22;64828;49.956;8.636;2023-08-06T01:32:32;15.30;89.80
76099;DHT22;64828;49.956;8.636;2023-08-06T01:32:51;15.40;89.80
76099;DHT22;64828;49.956;8.636;2023-08-06T01:33:12;15.30;89.80
76099;DHT22;64828;49.956;8.636;2023-08-06T01:33:32;15.30;89.80
76099;DHT22;64828;49.956;8.636;2023-08-06T01:33:50;15.30;89.90
76099;DHT22;64828;49.956;8.636;2023-08-06T01:34:13;15.40;89.90
76099;DHT22;64828;49.956;8.636;2023-08-06T01:34:34;15.30;89.90
76099;DHT22;64828;49.956;8.636;2023-08-06T01:34:50;15.30;89.90
76099;DHT22;64828;49.956;8.636;2023-08-06T01:35:07;15.30;89.90
76099;DHT22;64828;49.956;8.636;2023-08-06T01:35:25;15.30;89.90
76099;DHT22;64828;49.956;8.636;2023-08-06T01:35:42;15.30;89.90
76099;DHT22;64828;49.956;8.636;2023-08-06T01:35:58;15.40;89.90
76099;DHT22;64828;49.956;8.636;2023-08-06T01:36:16;15.30;89.90
76099;DHT22;64828;49.956;8.636;2023-08-06T01:36:33;15.40;89.90
76099;DHT22;64828;49.956;8.636;2023-08-06T01:36:50;15.40;89.90
76099;DHT22;64828;49.956;8.636;2023-08-06T01:37:06;15.30;89.90
76099;DHT22;64828;49.956;8.636;2023-08-06T01:37:21;15.40;90.00
76099;DHT22;64828;49.956;8.636;2023-08-06T01:37:38;15.40;90.00
76099;DHT22;64828;49.956;8.636;2023-08-06T01:37:54;15.40;90.00
76099;DHT22;64828;49.956;8.636;2023-08-06T01:38:11;15.30;90.00
76099;DHT22;64828;49.956;8.636;2023-08-06T01:38:27;15.30;90.00
76099;DHT22;64828;49.956;8.636;2023-08-06T01:38:43;15.30;90.00
76099;DHT22;64828;49.956;8.636;2023-08-06T01:38:59;15.40;90.00
76099;DHT22;64828;49.956;8.636;2023-08-06T01:39:15;15.30;90.00
76099;DHT22;64828;49.956;8.636;2023-08-06T01:39:33;15.30;90.00
76099;DHT22;64828;49.956;8.636;2023-08-06T01:39:48;15.40;90.00
76099;DHT22;64828;49.956;8.636;2023-08-06T01:40:11;15.30;90.00
76099;DHT22;64828;49.956;8.636;2023-08-06T01:40:29;15.30;89.90
76099;DHT22;64828;49.956;8.636;2023-08-06T01:40:45;15.30;89.90
76099;DHT22;64828;49.956;8.636;2023-08-06T01:41:00;15.30;89.90
76099;DHT22;64828;49.956;8.636;2023-08-06T01:41:16;15.30;89.90
76099;DHT22;64828;49.956;8.636;2023-08-06T01:41:31;15.30;89.80
76099;DHT22;64828;49.956;8.636;2023-08-06T01:41:47;15.30;89.80
76099;DHT22;64828;49.956;8.636;2023-08-06T01:42:03;15.30;89.80
76099;DHT22;64828;49.956;8.636;2023-08-06T01:42:19;15.30;89.80
76099;DHT22;64828;49.956;8.636;2023-08-06T01:42:34;15.30;89.80
76099;DHT22;64828;49.956;8.636;2023-08-06T01:42:50;15.30;89.70
76099;DHT22;64828;49.956;8.636;2023-08-06T01:43:05;15.30;89.80
76099;DHT22;64828;49.956;8.636;2023-08-06T01:43:21;15.30;89.80
76099;DHT22;64828;49.956;8.636;2023-08-06T01:43:36;15.30;89.90
76099;DHT22;64828;49.956;8.636;2023-08-06T01:43:51;15.30;89.90
76099;DHT22;64828;49.956;8.636;2023-08-06T01:44:07;15.30;90.00
76099;DHT22;64828;49.956;8.636;2023-08-06T01:44:22;15.30;90.00
76099;DHT22;64828;49.956;8.636;2023-08-06T01:44:38;15.30;90.10
76099;DHT22;64828;49.956;8.636;2023-08-06T01:44:53;15.30;90.10
76099;DHT22;64828;49.956;8.636;2023-08-06T01:45:09;15.30;90.10
76099;DHT22;64828;49.956;8.636;2023-08-06T01:45:25;15.30;90.00
76099;DHT22;64828;49.956;8.636;2023-08-06T01:45:40;15.30;90.00
76099;DHT22;64828;49.956;8.636;2023-08-06T01:45:56;15.30;90.00
76099;DHT22;64828;49.956;8.636;2023-08-06T01:46:11;15.30;90.00
76099;DHT22;64828;49.956;8.636;2023-08-06T01:46:27;15.30;90.00
76099;DHT22;64828;49.956;8.636;2023-08-06T01:46:42;15.30;90.00
76099;DHT22;64828;49.956;8.636;2023-08-06T01:46:58;15.30;90.00
76099;DHT22;64828;49.956;8.636;2023-08-06T01:47:13;15.30;90.00
76099;DHT22;64828;49.956;8.636;2023-08-06T01:47:29;15.30;90.00
76099;DHT22;64828;49.956;8.636;2023-08-06T01:47:44;15.30;90.00
76099;DHT22;64828;49.956;8.636;2023-08-06T01:48:00;15.30;90.00
76099;DHT22;64828;49.956;8.636;2023-08-06T01:48:15;15.30;90.00
76099;DHT22;64828;49.956;8.636;2023-08-06T01:48:31;15.30;90.10
76099;DHT22;64828;49.956;8.636;2023-08-06T01:48:46;15.30;90.00
76099;DHT22;64828;49.956;8.636;2023-08-06T01:49:01;15.30;90.00
76099;DHT22;64828;49.956;8.636;2023-08-06T01:49:17;15.30;90.00
76099;DHT22;64828;49.956;8.636;2023-08-06T01:49:32;15.30;90.00
76099;DHT22;64828;49.956;8.636;2023-08-06T01:49:48;15.30;90.00
76099;DHT22;64828;49.956;8.636;2023-08-06T01:50:04;15.30;90.00
76099;DHT22;64828;49.956;8.636;2023-08-06T01:50:19;15.30;90.00
76099;DHT22;64828;49.956;8.636;2023-08-06T01:50:35;15.30;90.00